createdAt,value
2018-06-28T00:01:31.804Z,2.87
2018-06-28T00:04:00.373Z,3.57
2018-06-28T00:06:28.904Z,3.40
2018-06-28T00:08:57.521Z,3.10
2018-06-28T00:11:26.165Z,3.27
2018-06-28T00:13:54.673Z,4.17
2018-06-28T00:16:23.389Z,2.87
2018-06-28T00:18:51.905Z,2.63
2018-06-28T00:21:20.643Z,2.77
2018-06-28T00:23:49.322Z,1.60
2018-06-28T00:26:18.079Z,1.30
2018-06-28T00:28:46.760Z,1.20
2018-06-28T00:31:16.099Z,1.53
2018-06-28T00:33:44.646Z,1.07
2018-06-28T00:36:13.222Z,1.37
2018-06-28T00:38:41.826Z,2.30
2018-06-28T00:41:10.371Z,2.40
2018-06-28T00:43:39.153Z,1.60
2018-06-28T00:46:07.727Z,3.80
2018-06-28T00:48:36.293Z,2.47
2018-06-28T00:51:04.920Z,2.43
2018-06-28T00:53:33.777Z,2.60
2018-06-28T00:56:02.386Z,3.13
2018-06-28T00:58:31.161Z,3.00
2018-06-28T01:00:59.744Z,3.93
2018-06-28T01:03:28.417Z,1.63
2018-06-28T01:05:57.045Z,4.50
2018-06-28T01:08:25.694Z,2.10
2018-06-28T01:10:54.994Z,2.43
2018-06-28T01:13:24.269Z,2.60
2018-06-28T01:15:52.864Z,1.43
2018-06-28T01:18:22.523Z,1.93
2018-06-28T01:20:51.498Z,2.17
2018-06-28T01:23:20.254Z,1.83
2018-06-28T01:25:48.732Z,1.33
2018-06-28T01:28:17.397Z,2.67
2018-06-28T01:30:46.593Z,3.70
2018-06-28T01:33:15.181Z,1.73
2018-06-28T01:35:43.810Z,1.53
2018-06-28T01:38:12.322Z,1.70
2018-06-28T01:40:40.805Z,3.00
2018-06-28T01:43:47.062Z,2.87
2018-06-28T01:46:16.498Z,2.60
2018-06-28T01:48:45.307Z,1.80
2018-06-28T01:51:14.594Z,2.70
2018-06-28T01:53:43.108Z,3.03
2018-06-28T01:56:11.981Z,4.13
2018-06-28T01:58:40.545Z,2.70
2018-06-28T02:01:09.076Z,3.53
2018-06-28T02:03:44.109Z,2.07
2018-06-28T02:06:12.733Z,1.77
2018-06-28T02:08:41.234Z,3.17
2018-06-28T02:11:10.273Z,3.37
2018-06-28T02:13:38.739Z,2.80
2018-06-28T02:16:07.374Z,2.13
2018-06-28T02:18:36.570Z,1.80
2018-06-28T02:21:05.122Z,1.83
2018-06-28T02:23:33.662Z,2.10
2018-06-28T02:26:02.123Z,4.23
2018-06-28T02:28:30.744Z,2.13
2018-06-28T02:30:59.978Z,4.60
2018-06-28T02:33:28.526Z,3.67
2018-06-28T02:35:57.152Z,2.57
2018-06-28T02:38:26.906Z,3.60
2018-06-28T02:40:56.140Z,4.30
2018-06-28T02:43:24.625Z,3.00
2018-06-28T02:45:59.617Z,4.97
2018-06-28T02:48:28.133Z,4.67
2018-06-28T02:50:56.722Z,4.20
2018-06-28T02:53:25.974Z,2.50
2018-06-28T02:55:54.598Z,2.50
2018-06-28T02:58:23.681Z,2.63
2018-06-28T03:00:52.198Z,4.30
2018-06-28T03:03:20.820Z,4.90
2018-06-28T03:05:49.303Z,4.40
2018-06-28T03:08:17.833Z,4.13
2018-06-28T03:10:46.345Z,5.03
2018-06-28T03:13:14.835Z,2.50
2018-06-28T03:15:43.350Z,3.60
2018-06-28T03:18:11.925Z,1.90
2018-06-28T03:20:40.566Z,2.70
2018-06-28T03:23:09.904Z,2.87
2018-06-28T03:25:38.385Z,4.50
2018-06-28T03:28:06.880Z,3.77
2018-06-28T03:30:36.706Z,2.20
2018-06-28T03:33:05.909Z,4.20
2018-06-28T03:35:35.154Z,4.73
2018-06-28T03:38:03.801Z,2.87
2018-06-28T03:40:32.458Z,5.73
2018-06-28T03:43:00.970Z,2.23
2018-06-28T03:45:29.631Z,3.10
2018-06-28T03:47:58.209Z,4.03
2018-06-28T03:50:26.679Z,3.43
2018-06-28T03:52:55.310Z,5.37
2018-06-28T03:55:23.920Z,4.77
2018-06-28T03:57:52.463Z,2.80
2018-06-28T04:00:20.978Z,4.63
2018-06-28T04:02:49.740Z,3.97
2018-06-28T04:05:18.797Z,2.90
2018-06-28T04:07:47.279Z,2.50
2018-06-28T04:10:15.976Z,2.00
2018-06-28T04:12:44.508Z,2.90
2018-06-28T04:15:13.874Z,5.63
2018-06-28T04:17:42.458Z,6.03
2018-06-28T04:20:10.987Z,2.60
2018-06-28T04:22:39.453Z,3.43
2018-06-28T04:25:08.735Z,5.33
2018-06-28T04:27:37.204Z,6.47
2018-06-28T04:30:06.489Z,3.30
2018-06-28T04:32:35.084Z,2.73
2018-06-28T04:35:03.730Z,5.80
2018-06-28T04:37:33.135Z,6.83
2018-06-28T04:40:01.827Z,8.03
2018-06-28T04:42:30.431Z,6.60
2018-06-28T04:44:58.990Z,4.20
2018-06-28T04:47:27.491Z,4.73
2018-06-28T04:49:56.128Z,4.20
2018-06-28T04:52:24.691Z,3.53
2018-06-28T04:54:53.272Z,4.93
2018-06-28T04:57:21.740Z,4.07
2018-06-28T04:59:50.297Z,4.07
2018-06-28T05:02:18.809Z,2.53
2018-06-28T05:04:47.398Z,2.13
2018-06-28T05:07:15.971Z,5.27
2018-06-28T05:09:45.009Z,5.17
2018-06-28T05:12:13.551Z,4.57
2018-06-28T05:14:42.267Z,5.63
2018-06-28T05:17:10.797Z,5.27
2018-06-28T05:19:39.348Z,3.40
2018-06-28T05:22:08.026Z,5.30
2018-06-28T05:24:36.777Z,5.37
2018-06-28T05:27:05.681Z,5.23
2018-06-28T05:29:34.231Z,4.93
2018-06-28T05:32:02.832Z,5.13
2018-06-28T05:34:31.401Z,5.00
2018-06-28T05:37:00.210Z,19.77
2018-06-28T05:39:28.756Z,4.87
2018-06-28T05:41:58.004Z,5.60
2018-06-28T05:44:26.545Z,5.10
2018-06-28T05:46:54.892Z,4.93
2018-06-28T05:49:23.563Z,4.97
2018-06-28T05:51:52.129Z,4.57
2018-06-28T05:54:20.642Z,4.90
2018-06-28T05:56:49.314Z,4.90
2018-06-28T05:59:18.651Z,5.87
2018-06-28T06:01:47.200Z,5.37
2018-06-28T06:04:15.817Z,5.27
2018-06-28T06:06:44.376Z,4.97
2018-06-28T06:09:13.078Z,9.13
2018-06-28T06:11:41.767Z,5.17
2018-06-28T06:14:10.406Z,5.77
2018-06-28T06:16:38.914Z,6.03
2018-06-28T06:19:07.550Z,5.13
2018-06-28T06:21:36.157Z,6.30
2018-06-28T06:24:04.718Z,5.83
2018-06-28T06:26:33.186Z,7.07
2018-06-28T06:29:02.503Z,6.47
2018-06-28T06:31:31.550Z,8.20
2018-06-28T06:34:00.927Z,5.50
2018-06-28T06:36:29.414Z,6.03
2018-06-28T06:38:58.100Z,8.57
2018-06-28T06:41:26.630Z,6.00
2018-06-28T06:43:55.222Z,5.37
2018-06-28T06:46:23.739Z,5.00
2018-06-28T06:48:52.395Z,5.80
2018-06-28T06:51:24.623Z,5.03
2018-06-28T06:53:53.723Z,6.57
2018-06-28T06:56:22.330Z,6.70
2018-06-28T06:58:50.818Z,5.70
2018-06-28T07:01:19.389Z,5.47
2018-06-28T07:03:48.004Z,7.43
2018-06-28T07:06:16.956Z,6.53
2018-06-28T07:08:45.796Z,7.07
2018-06-28T07:11:15.268Z,5.17
2018-06-28T07:13:44.328Z,3.90
2018-06-28T07:16:12.874Z,8.00
2018-06-28T07:18:41.430Z,5.13
2018-06-28T07:21:10.295Z,6.03
2018-06-28T07:23:38.975Z,6.93
2018-06-28T07:26:07.747Z,4.77
2018-06-28T07:28:36.634Z,6.83
2018-06-28T07:31:05.155Z,7.03
2018-06-28T07:33:34.439Z,3.77
2018-06-28T07:36:03.260Z,5.37
2018-06-28T07:38:31.867Z,6.53
2018-06-28T07:41:00.405Z,6.17
2018-06-28T07:43:28.966Z,3.93
2018-06-28T07:45:57.488Z,6.37
2018-06-28T07:48:26.032Z,5.87
2018-06-28T07:50:55.062Z,5.13
2018-06-28T07:53:23.566Z,4.23
2018-06-28T07:55:52.151Z,4.90
2018-06-28T07:58:21.782Z,3.80
2018-06-28T08:00:50.313Z,4.77
2018-06-28T08:03:18.810Z,5.40
2018-06-28T08:05:47.415Z,4.17
2018-06-28T08:08:16.734Z,7.07
2018-06-28T08:10:45.288Z,4.13
2018-06-28T08:13:13.760Z,4.30
2018-06-28T08:15:42.811Z,8.50
2018-06-28T08:18:11.296Z,6.93
2018-06-28T08:20:39.904Z,6.87
2018-06-28T08:23:09.129Z,4.00
2018-06-28T08:25:37.655Z,4.03
2018-06-28T08:28:06.304Z,3.60
2018-06-28T08:30:34.831Z,4.47
2018-06-28T08:33:03.366Z,4.93
2018-06-28T08:35:31.966Z,5.27
2018-06-28T08:38:00.478Z,7.33
2018-06-28T08:40:29.125Z,6.03
2018-06-28T08:42:57.646Z,7.90
2018-06-28T08:45:26.163Z,4.60
2018-06-28T08:47:54.761Z,5.17
2018-06-28T08:50:23.276Z,4.77
2018-06-28T08:52:51.907Z,4.97
2018-06-28T08:55:20.453Z,4.73
2018-06-28T08:57:49.057Z,4.07
2018-06-28T09:00:17.623Z,3.87
2018-06-28T09:02:46.165Z,6.63
2018-06-28T09:05:15.286Z,4.97
2018-06-28T09:07:43.841Z,5.13
2018-06-28T09:10:12.490Z,5.53
2018-06-28T09:12:41.091Z,6.13
2018-06-28T09:15:10.145Z,5.63
2018-06-28T09:17:38.611Z,4.50
2018-06-28T09:20:07.450Z,4.80
2018-06-28T09:22:36.113Z,5.73
2018-06-28T09:25:04.699Z,5.30
2018-06-28T09:27:33.333Z,5.73
2018-06-28T09:30:01.851Z,5.00
2018-06-28T09:32:30.426Z,3.90
2018-06-28T09:34:59.006Z,6.93
2018-06-28T09:37:27.623Z,5.30
2018-06-28T09:39:56.334Z,4.20
2018-06-28T09:42:24.971Z,4.17
2018-06-28T09:44:53.521Z,4.07
2018-06-28T09:47:22.096Z,2.60
2018-06-28T09:49:50.619Z,5.00
2018-06-28T09:52:19.115Z,5.47
2018-06-28T09:54:47.695Z,4.93
2018-06-28T09:57:16.223Z,3.95
2018-06-28T09:59:44.793Z,7.67
2018-06-28T10:02:13.427Z,3.95
2018-06-28T10:04:42.685Z,6.10
2018-06-28T10:07:11.411Z,4.53
2018-06-28T10:09:39.934Z,4.72
2018-06-28T10:12:08.491Z,4.80
2018-06-28T10:14:37.828Z,4.60
2018-06-28T10:17:06.465Z,5.95
2018-06-28T10:19:35.204Z,4.17
2018-06-28T10:22:04.497Z,6.65
2018-06-28T10:24:33.143Z,5.30
2018-06-28T10:27:01.752Z,3.87
2018-06-28T10:29:30.226Z,3.58
2018-06-28T10:31:58.715Z,3.22
2018-06-28T10:34:27.277Z,4.28
2018-06-28T10:36:55.782Z,4.87
2018-06-28T10:39:24.298Z,4.25
2018-06-28T10:41:54.411Z,4.58
2018-06-28T10:44:22.886Z,4.10
2018-06-28T10:46:51.783Z,4.05
2018-06-28T10:49:20.378Z,3.80
2018-06-28T10:51:48.944Z,5.22
2018-06-28T10:54:17.499Z,5.17
2018-06-28T10:56:46.041Z,5.12
2018-06-28T10:59:14.663Z,4.22
2018-06-28T11:01:43.337Z,4.25
2018-06-28T11:04:12.424Z,5.12
2018-06-28T11:06:41.041Z,3.80
2018-06-28T11:09:10.577Z,4.23
2018-06-28T11:11:40.077Z,4.57
2018-06-28T11:14:09.023Z,4.00
2018-06-28T11:16:37.616Z,6.43
2018-06-28T11:19:06.183Z,7.27
2018-06-28T11:21:34.799Z,4.87
2018-06-28T11:24:03.361Z,4.60
2018-06-28T11:26:31.911Z,4.70
2018-06-28T11:29:00.707Z,4.03
2018-06-28T11:31:29.224Z,3.97
2018-06-28T11:33:57.864Z,3.77
2018-06-28T11:36:26.444Z,3.50
2018-06-28T11:38:55.046Z,5.10
2018-06-28T11:41:23.586Z,3.67
2018-06-28T11:43:52.157Z,2.90
2018-06-28T11:46:21.230Z,3.63
2018-06-28T11:48:49.966Z,4.00
2018-06-28T11:51:19.392Z,3.57
2018-06-28T11:53:48.010Z,6.63
2018-06-28T11:56:16.627Z,7.47
2018-06-28T11:58:45.604Z,4.30
2018-06-28T12:01:14.154Z,3.37
2018-06-28T12:03:48.171Z,4.83
2018-06-28T12:06:16.807Z,5.00
2018-06-28T12:08:45.486Z,8.43
2018-06-28T12:11:14.739Z,5.70
2018-06-28T12:13:43.441Z,4.67
2018-06-28T12:16:12.018Z,3.20
2018-06-28T12:18:41.292Z,3.97
2018-06-28T12:21:10.578Z,4.47
2018-06-28T12:23:40.065Z,2.77
2018-06-28T12:26:09.026Z,3.53
2018-06-28T12:28:37.623Z,3.23
2018-06-28T12:31:06.213Z,4.57
2018-06-28T12:33:34.677Z,6.70
2018-06-28T12:36:03.452Z,5.83
2018-06-28T12:38:33.344Z,7.60
2018-06-28T12:41:01.917Z,4.40
2018-06-28T12:43:31.011Z,5.53
2018-06-28T12:46:00.571Z,5.47
2018-06-28T12:48:29.114Z,4.30
2018-06-28T12:50:57.709Z,4.07
2018-06-28T12:53:26.424Z,3.57
2018-06-28T12:56:30.826Z,5.80
2018-06-28T12:59:01.697Z,6.13
2018-06-28T13:01:30.564Z,5.73
2018-06-28T13:03:59.492Z,7.43
2018-06-28T13:06:28.718Z,5.27
2018-06-28T13:08:57.937Z,5.20
2018-06-28T13:11:26.978Z,5.83
2018-06-28T13:13:55.806Z,6.90
2018-06-28T13:16:26.705Z,7.65
2018-06-28T13:18:56.049Z,6.13
2018-06-28T13:21:25.211Z,5.73
2018-06-28T13:23:54.478Z,5.17
2018-06-28T13:26:23.337Z,5.13
2018-06-28T13:28:52.008Z,5.03
2018-06-28T13:31:20.577Z,4.23
2018-06-28T13:33:49.350Z,5.60
2018-06-28T13:36:18.459Z,4.07
2018-06-28T13:38:47.661Z,6.60
2018-06-28T13:41:16.930Z,7.23
2018-06-28T13:43:45.150Z,5.90
2018-06-28T13:46:13.832Z,6.67
2018-06-28T13:48:42.441Z,4.73
2018-06-28T13:51:11.137Z,6.63
2018-06-28T13:53:39.719Z,3.87
2018-06-28T13:56:08.989Z,6.03
2018-06-28T13:58:37.573Z,4.63
2018-06-28T14:01:06.943Z,6.70
2018-06-28T14:03:37.229Z,4.27
2018-06-28T14:06:06.116Z,3.77
2018-06-28T14:08:34.724Z,3.73
2018-06-28T14:11:03.342Z,7.10
2018-06-28T14:13:32.591Z,5.87
2018-06-28T14:16:01.977Z,3.73
2018-06-28T14:18:31.296Z,5.87
2018-06-28T14:20:59.938Z,3.10
2018-06-28T14:23:28.654Z,2.60
2018-06-28T14:25:57.272Z,5.30
2018-06-28T14:28:25.791Z,4.77
2018-06-28T14:30:54.392Z,3.37
2018-06-28T14:33:23.060Z,5.33
2018-06-28T14:35:51.734Z,3.60
2018-06-28T14:38:20.275Z,3.63
2018-06-28T14:40:49.407Z,3.90
2018-06-28T14:43:18.837Z,4.53
2018-06-28T14:45:48.284Z,4.77
2018-06-28T14:48:17.561Z,6.00
2018-06-28T14:50:46.233Z,5.40
2018-06-28T14:53:15.660Z,6.10
2018-06-28T14:55:44.828Z,3.73
2018-06-28T14:58:15.108Z,6.83
2018-06-28T15:00:43.843Z,4.10
2018-06-28T15:03:12.448Z,6.33
2018-06-28T15:05:41.724Z,5.97
2018-06-28T15:08:16.749Z,5.20
2018-06-28T15:10:45.902Z,7.73
2018-06-28T15:13:14.458Z,7.00
2018-06-28T15:15:43.274Z,4.07
2018-06-28T15:18:12.046Z,5.73
2018-06-28T15:20:40.793Z,7.00
2018-06-28T15:23:09.835Z,5.53
2018-06-28T15:25:38.364Z,4.17
2018-06-28T15:28:07.173Z,4.10
2018-06-28T15:30:35.880Z,3.73
2018-06-28T15:33:04.969Z,3.67
2018-06-28T15:35:33.540Z,6.53
2018-06-28T15:38:02.195Z,6.13
2018-06-28T15:40:31.043Z,6.20
2018-06-28T15:42:59.608Z,4.70
2018-06-28T15:45:28.234Z,10.33
2018-06-28T15:47:56.776Z,5.47
2018-06-28T15:50:25.621Z,8.13
2018-06-28T15:52:54.386Z,8.20
2018-06-28T15:55:23.046Z,5.17
2018-06-28T15:57:51.712Z,8.43
2018-06-28T16:00:20.448Z,7.90
2018-06-28T16:02:49.167Z,7.57
2018-06-28T16:05:18.166Z,7.47
2018-06-28T16:07:46.753Z,6.57
2018-06-28T16:10:15.358Z,6.10
2018-06-28T16:12:43.950Z,5.50
2018-06-28T16:15:12.499Z,6.70
2018-06-28T16:17:41.191Z,6.10
2018-06-28T16:20:10.629Z,12.33
2018-06-28T16:22:39.688Z,10.13
2018-06-28T16:25:08.205Z,8.33
2018-06-28T16:27:36.751Z,11.70
2018-06-28T16:30:05.499Z,5.50
2018-06-28T16:32:34.797Z,11.53
2018-06-28T16:35:03.422Z,7.07
2018-06-28T16:37:32.074Z,5.37
2018-06-28T16:40:01.221Z,5.07
2018-06-28T16:42:29.820Z,10.13
2018-06-28T16:44:58.320Z,5.97
2018-06-28T16:47:26.925Z,5.50
2018-06-28T16:49:55.737Z,8.50
2018-06-28T16:52:24.407Z,5.67
2018-06-28T16:54:52.990Z,5.13
2018-06-28T16:57:21.653Z,9.43
2018-06-28T16:59:50.279Z,5.90
2018-06-28T17:02:18.861Z,4.90
2018-06-28T17:04:47.627Z,4.77
2018-06-28T17:07:16.286Z,4.40
2018-06-28T17:09:44.989Z,3.70
2018-06-28T17:12:13.599Z,6.37
2018-06-28T17:14:42.164Z,8.17
2018-06-28T17:17:10.819Z,8.50
2018-06-28T17:19:39.339Z,11.17
2018-06-28T17:22:08.030Z,8.97
2018-06-28T17:24:36.651Z,9.43
2018-06-28T17:27:05.303Z,9.30
2018-06-28T17:29:35.004Z,10.80
2018-06-28T17:32:03.762Z,10.57
2018-06-28T17:34:32.343Z,5.17
2018-06-28T17:37:01.509Z,11.97
2018-06-28T17:39:30.153Z,6.03
2018-06-28T17:41:58.789Z,12.03
2018-06-28T17:44:27.421Z,11.03
2018-06-28T17:46:55.999Z,12.03
2018-06-28T17:49:24.705Z,13.70
2018-06-28T17:51:53.475Z,11.27
2018-06-28T17:54:22.212Z,12.03
2018-06-28T17:56:50.775Z,13.00
2018-06-28T17:59:20.077Z,13.20
2018-06-28T18:01:48.852Z,14.03
2018-06-28T18:04:17.422Z,14.13
2018-06-28T18:06:46.526Z,13.37
2018-06-28T18:09:15.344Z,15.57
2018-06-28T18:11:45.037Z,10.80
2018-06-28T18:14:13.781Z,16.17
2018-06-28T18:16:43.181Z,15.20
2018-06-28T18:19:11.841Z,10.20
2018-06-28T18:21:40.382Z,8.70
2018-06-28T18:24:09.074Z,6.70
2018-06-28T18:26:37.662Z,5.63
2018-06-28T18:29:06.247Z,13.90
2018-06-28T18:31:34.781Z,8.53
2018-06-28T18:34:04.109Z,4.70
2018-06-28T18:36:33.404Z,7.27
2018-06-28T18:39:02.645Z,8.17
2018-06-28T18:41:31.171Z,6.27
2018-06-28T18:43:59.948Z,8.43
2018-06-28T18:46:29.102Z,9.30
2018-06-28T18:48:57.679Z,4.33
2018-06-28T18:51:26.295Z,7.03
2018-06-28T18:53:54.924Z,5.57
2018-06-28T18:56:23.805Z,3.60
2018-06-28T18:58:52.382Z,4.57
2018-06-28T19:01:20.970Z,5.03
2018-06-28T19:03:50.342Z,10.03
2018-06-28T19:06:18.993Z,3.63
2018-06-28T19:08:47.585Z,3.43
2018-06-28T19:11:16.213Z,3.17
2018-06-28T19:13:50.211Z,3.93
2018-06-28T19:16:24.117Z,2.40
2018-06-28T19:18:52.856Z,2.60
2018-06-28T19:21:26.798Z,5.17
2018-06-28T19:23:55.355Z,2.53
2018-06-28T19:26:24.116Z,2.40
2018-06-28T19:28:52.634Z,5.30
2018-06-28T19:31:27.078Z,3.70
2018-06-28T19:33:55.760Z,3.80
2018-06-28T19:36:24.427Z,3.90
2018-06-28T19:38:58.502Z,3.40
2018-06-28T19:41:32.453Z,3.47
2018-06-28T19:44:01.038Z,8.33
2018-06-28T19:46:30.319Z,4.27
2018-06-28T19:48:58.821Z,8.00
2018-06-28T19:51:32.656Z,7.40
2018-06-28T19:54:01.185Z,4.87
2018-06-28T19:56:29.760Z,5.90
2018-06-28T19:58:58.336Z,6.40
2018-06-28T20:01:32.151Z,5.23
2018-06-28T20:04:06.232Z,5.10
2018-06-28T20:06:34.798Z,7.03
2018-06-28T20:09:03.419Z,6.20
2018-06-28T20:11:31.971Z,6.50
2018-06-28T20:14:05.770Z,5.20
2018-06-28T20:16:39.554Z,5.47
2018-06-28T20:19:13.490Z,5.30
2018-06-28T20:21:42.176Z,4.97
2018-06-28T20:24:10.754Z,7.50
2018-06-28T20:26:44.498Z,5.40
2018-06-28T20:29:18.364Z,5.97
2018-06-28T20:31:52.193Z,3.37
2018-06-28T20:34:20.784Z,5.80
2018-06-28T20:36:49.470Z,5.00
2018-06-28T20:39:17.971Z,6.47
2018-06-28T20:41:46.503Z,4.87
2018-06-28T20:44:15.115Z,4.47
2018-06-28T20:46:44.283Z,7.40
2018-06-28T20:49:12.916Z,6.70
2018-06-28T20:51:41.460Z,10.60
2018-06-28T20:54:10.671Z,10.47
2018-06-28T20:56:39.328Z,9.63
2018-06-28T20:59:07.927Z,6.70
2018-06-28T21:01:36.630Z,6.67
2018-06-28T21:04:06.148Z,9.33
2018-06-28T21:06:35.409Z,8.87
2018-06-28T21:09:06.141Z,9.27
2018-06-28T21:11:35.303Z,7.63
2018-06-28T21:14:03.937Z,9.30
2018-06-28T21:16:33.255Z,11.33
2018-06-28T21:19:01.735Z,11.60
2018-06-28T21:21:30.506Z,10.13
2018-06-28T21:23:59.332Z,9.60
2018-06-28T21:26:27.917Z,9.97
2018-06-28T21:28:56.923Z,8.77
2018-06-28T21:31:25.457Z,6.87
2018-06-28T21:33:54.179Z,4.10
2018-06-28T21:36:22.715Z,3.90
2018-06-28T21:38:51.245Z,4.17
2018-06-28T21:41:20.741Z,6.87
2018-06-28T21:43:49.358Z,8.20
2018-06-28T21:46:17.917Z,6.60
2018-06-28T21:48:46.571Z,8.80
2018-06-28T21:51:15.081Z,9.70
2018-06-28T21:53:43.629Z,6.70
2018-06-28T21:56:12.162Z,4.90
2018-06-28T21:58:40.762Z,7.03
2018-06-28T22:01:09.378Z,7.57
2018-06-28T22:03:38.876Z,7.90
2018-06-28T22:06:07.448Z,4.23
2018-06-28T22:08:35.953Z,5.07
2018-06-28T22:11:04.700Z,3.50
2018-06-28T22:13:33.165Z,4.10
2018-06-28T22:16:01.692Z,6.93
2018-06-28T22:18:30.260Z,8.80
2018-06-28T22:20:59.486Z,9.27
2018-06-28T22:23:28.017Z,8.30
2018-06-28T22:25:56.751Z,10.03
2018-06-28T22:28:25.296Z,9.13
2018-06-28T22:30:54.825Z,8.83
2018-06-28T22:33:23.371Z,10.27
2018-06-28T22:35:51.917Z,8.63
2018-06-28T22:38:20.540Z,9.20
2018-06-28T22:40:49.115Z,7.83
2018-06-28T22:43:17.749Z,8.30
2018-06-28T22:45:47.191Z,8.23
2018-06-28T22:48:15.796Z,4.63
2018-06-28T22:50:44.345Z,3.83
2018-06-28T22:53:12.853Z,3.33
2018-06-28T22:55:41.452Z,7.13
2018-06-28T22:58:09.983Z,8.27
2018-06-28T23:00:38.461Z,6.07
2018-06-28T23:03:07.011Z,7.80
2018-06-28T23:05:35.575Z,8.23
2018-06-28T23:08:04.077Z,6.17
2018-06-28T23:10:32.614Z,6.13
2018-06-28T23:13:01.125Z,4.37
2018-06-28T23:15:30.412Z,5.27
2018-06-28T23:17:59.087Z,5.67
2018-06-28T23:20:27.749Z,5.13
2018-06-28T23:22:56.315Z,4.90
2018-06-28T23:25:25.368Z,6.10
2018-06-28T23:27:53.872Z,4.13
2018-06-28T23:30:23.388Z,2.97
2018-06-28T23:32:52.038Z,7.33
2018-06-28T23:35:20.632Z,4.00
2018-06-28T23:37:49.153Z,3.63
2018-06-28T23:40:17.779Z,7.53
2018-06-28T23:42:46.247Z,4.97
2018-06-28T23:45:14.801Z,5.13
2018-06-28T23:47:43.522Z,3.13
2018-06-28T23:50:12.009Z,3.70
2018-06-28T23:52:41.157Z,5.70
2018-06-28T23:55:10.378Z,4.30
2018-06-28T23:57:38.919Z,3.97
